Time;durP1;ratioP1;P1;durP2;ratioP2;P2;SDS_P1;SDS_P2;PMS_P1;PMS_P2;Temp;Humidity;BMP_temperature;BMP_pressure;BME280_temperature;BME280_humidity;BME280_pressure;Samples;Min_cycle;Max_cycle;Signal;HPM_P1;HPM_P2
2023/04/26 00:02:22;;;;;;;8.98;2.20;;;5.30;99.90;;;;;;5009067;28;20496;-86
2023/04/26 00:04:54;;;;;;;8.68;2.08;;;5.30;99.90;;;;;;5016957;28;20048;-85
2023/04/26 00:07:24;;;;;;;6.30;2.13;;;5.20;99.90;;;;;;5013547;28;20034;-85
2023/04/26 00:09:51;;;;;;;7.30;1.88;;;5.20;99.90;;;;;;5013604;28;20042;-85
2023/04/26 00:12:17;;;;;;;10.70;2.72;;;5.10;99.90;;;;;;5012467;28;20069;-85
2023/04/26 00:14:43;;;;;;;9.80;2.15;;;5.00;99.90;;;;;;5019973;28;20055;-86
2023/04/26 00:17:09;;;;;;;7.95;2.53;;;5.00;99.90;;;;;;5007846;28;20037;-86
2023/04/26 00:19:35;;;;;;;7.22;2.42;;;5.00;99.90;;;;;;4997915;28;20084;-85
2023/04/26 00:22:01;;;;;;;9.40;2.22;;;5.00;99.90;;;;;;5012177;28;20471;-86
2023/04/26 00:24:34;;;;;;;8.45;2.00;;;5.10;99.90;;;;;;5012635;28;20069;-85
2023/04/26 00:27:00;;;;;;;6.72;2.17;;;5.00;99.90;;;;;;5009919;28;20033;-85
2023/04/26 00:29:26;;;;;;;6.25;1.58;;;5.00;99.90;;;;;;5022004;28;20045;-85
2023/04/26 00:31:51;;;;;;;13.05;2.65;;;5.00;99.90;;;;;;4997101;28;20061;-85
2023/04/26 00:34:17;;;;;;;7.32;1.73;;;5.00;99.90;;;;;;5011049;28;20050;-85
2023/04/26 00:36:46;;;;;;;10.52;2.50;;;5.00;99.90;;;;;;5014924;28;20519;-85
2023/04/26 00:39:15;;;;;;;9.05;2.20;;;4.90;99.90;;;;;;5007496;28;20084;-85
2023/04/26 00:41:41;;;;;;;9.57;2.05;;;4.90;99.90;;;;;;5006053;28;20045;-85
2023/04/26 00:44:06;;;;;;;11.70;2.63;;;4.90;99.90;;;;;;5012675;28;20038;-85
2023/04/26 00:46:35;;;;;;;8.40;2.20;;;4.90;99.90;;;;;;5016374;28;20783;-85
2023/04/26 00:49:03;;;;;;;10.75;2.38;;;4.90;99.90;;;;;;5012710;28;20117;-85
2023/04/26 00:51:30;;;;;;;6.35;1.63;;;4.90;99.90;;;;;;5012084;28;20041;-85
2023/04/26 00:53:56;;;;;;;9.18;1.98;;;4.90;99.90;;;;;;5013482;28;20046;-85
2023/04/26 00:56:24;;;;;;;12.13;2.40;;;4.90;99.90;;;;;;5015350;28;20073;-85
2023/04/26 00:58:52;;;;;;;8.73;1.83;;;4.90;99.90;;;;;;5019048;28;20033;-85
2023/04/26 01:01:18;;;;;;;6.13;2.63;;;4.90;99.90;;;;;;5010092;28;20034;-86
2023/04/26 01:03:45;;;;;;;6.70;2.30;;;4.90;99.90;;;;;;5017155;28;20048;-85
2023/04/26 01:06:13;;;;;;;9.38;2.63;;;4.90;99.90;;;;;;5015630;28;20040;-85
2023/04/26 01:08:40;;;;;;;12.23;2.50;;;4.90;99.90;;;;;;5012665;28;20038;-85
2023/04/26 01:11:06;;;;;;;7.55;2.42;;;4.80;99.90;;;;;;5012484;28;20084;-85
2023/04/26 01:13:31;;;;;;;6.82;1.90;;;4.70;99.90;;;;;;5019420;28;20404;-85
2023/04/26 01:16:01;;;;;;;10.60;2.58;;;4.70;99.90;;;;;;5006908;28;20049;-83
2023/04/26 01:18:30;;;;;;;8.90;1.75;;;4.70;99.90;;;;;;5013876;28;20034;-85
2023/04/26 01:20:56;;;;;;;7.40;2.10;;;4.70;99.90;;;;;;5013900;28;20049;-83
2023/04/26 01:23:21;;;;;;;9.88;1.85;;;4.70;99.90;;;;;;5018223;28;20041;-85
2023/04/26 01:25:48;;;;;;;10.23;2.30;;;4.70;99.90;;;;;;5014265;28;20048;-84
2023/04/26 01:28:13;;;;;;;9.35;1.92;;;4.70;99.90;;;;;;5013454;28;20420;-85
2023/04/26 01:30:39;;;;;;;7.13;2.13;;;4.70;99.90;;;;;;5011207;28;20084;-85
2023/04/26 01:33:05;;;;;;;7.95;2.00;;;4.70;99.90;;;;;;5016979;28;20054;-85
2023/04/26 01:35:31;;;;;;;11.55;2.00;;;4.70;99.90;;;;;;5017449;28;20041;-85
2023/04/26 01:37:56;;;;;;;7.15;2.13;;;4.70;99.90;;;;;;5009161;28;20507;-85
2023/04/26 01:40:22;;;;;;;8.30;1.73;;;4.70;99.90;;;;;;5013250;28;20046;-84
2023/04/26 01:42:48;;;;;;;9.18;2.10;;;4.70;99.90;;;;;;5015436;28;20062;-85
2023/04/26 01:45:14;;;;;;;9.70;2.45;;;4.60;99.90;;;;;;5001405;28;20439;-85
2023/04/26 01:47:40;;;;;;;7.13;1.67;;;4.60;99.90;;;;;;4993342;28;20121;-85
2023/04/26 01:50:06;;;;;;;6.18;1.75;;;4.60;99.90;;;;;;5008996;28;20515;-84
2023/04/26 01:52:32;;;;;;;8.50;2.60;;;4.60;99.90;;;;;;5011715;28;20034;-84
2023/04/26 01:54:58;;;;;;;10.07;2.67;;;4.60;99.90;;;;;;5006594;28;20046;-85
2023/04/26 01:57:26;;;;;;;8.85;2.38;;;4.60;99.90;;;;;;5014807;28;20046;-84
2023/04/26 01:59:54;;;;;;;9.93;2.42;;;4.60;99.90;;;;;;5011402;28;20057;-85
2023/04/26 02:02:20;;;;;;;7.10;1.92;;;4.60;99.90;;;;;;5012735;28;20033;-84
2023/04/26 02:04:45;;;;;;;10.35;2.28;;;4.50;99.90;;;;;;5013856;28;20175;-84
2023/04/26 02:07:11;;;;;;;6.82;1.70;;;4.50;99.90;;;;;;5012323;28;20041;-84
2023/04/26 02:09:37;;;;;;;7.20;2.10;;;4.50;99.90;;;;;;5010504;28;20038;-84
2023/04/26 02:12:03;;;;;;;10.90;2.53;;;4.50;99.90;;;;;;5009842;28;20045;-84
2023/04/26 02:14:35;;;;;;;12.82;3.13;;;4.50;99.90;;;;;;5013733;28;20034;-84
2023/04/26 02:17:00;;;;;;;7.85;1.70;;;4.50;99.90;;;;;;5013291;28;20041;-83
2023/04/26 02:19:26;;;;;;;9.90;2.05;;;4.50;99.90;;;;;;5009689;28;20060;-84
2023/04/26 02:21:56;;;;;;;6.80;1.77;;;4.50;99.90;;;;;;5012978;28;20042;-84
2023/04/26 02:24:23;;;;;;;7.78;2.05;;;4.50;99.90;;;;;;4988200;28;20050;-84
2023/04/26 02:26:50;;;;;;;6.70;2.10;;;4.50;99.90;;;;;;5008032;28;20045;-84
2023/04/26 02:29:16;;;;;;;5.05;1.33;;;4.40;99.90;;;;;;5012627;28;20037;-84
2023/04/26 02:31:41;;;;;;;4.25;1.65;;;4.40;99.90;;;;;;5013251;28;20046;-84
2023/04/26 02:34:09;;;;;;;6.63;2.05;;;4.40;99.90;;;;;;5006630;28;20069;-83
2023/04/26 02:36:35;;;;;;;4.75;1.88;;;4.40;99.90;;;;;;5012865;28;20068;-83
2023/04/26 02:39:01;;;;;;;6.72;1.80;;;4.40;99.90;;;;;;5013993;28;20120;-84
2023/04/26 02:41:26;;;;;;;6.18;1.73;;;4.30;99.90;;;;;;5008398;28;20033;-83
2023/04/26 02:43:52;;;;;;;9.63;2.42;;;4.30;99.90;;;;;;5011858;28;20068;-83
2023/04/26 02:46:18;;;;;;;5.68;1.65;;;4.40;99.90;;;;;;5004603;28;20045;-83
2023/04/26 02:48:44;;;;;;;6.68;2.00;;;4.40;99.90;;;;;;5010876;28;20054;-83
2023/04/26 02:51:10;;;;;;;8.93;2.08;;;4.40;99.90;;;;;;4999669;28;20069;-83
2023/04/26 02:53:35;;;;;;;5.75;1.73;;;4.40;99.90;;;;;;5021877;28;20069;-83
2023/04/26 02:56:01;;;;;;;8.13;1.77;;;4.40;99.90;;;;;;5006204;28;20510;-83
2023/04/26 02:58:27;;;;;;;7.32;1.80;;;4.40;99.90;;;;;;5021922;28;20121;-83
2023/04/26 03:00:56;;;;;;;5.47;1.60;;;4.40;99.90;;;;;;5003141;28;20057;-83
2023/04/26 03:03:21;;;;;;;12.63;3.05;;;4.30;99.90;;;;;;5009197;28;20050;-84
2023/04/26 03:05:47;;;;;;;8.98;2.00;;;4.30;99.90;;;;;;5011485;28;20034;-83
2023/04/26 03:08:13;;;;;;;5.90;1.70;;;4.40;99.90;;;;;;5011294;28;20104;-83
2023/04/26 03:10:39;;;;;;;6.32;1.65;;;4.20;99.90;;;;;;5006642;28;20042;-83
2023/04/26 03:13:07;;;;;;;7.13;1.70;;;4.20;99.90;;;;;;5008035;28;20042;-83
2023/04/26 03:15:32;;;;;;;7.13;1.70;;;4.20;99.90;;;;;;5013778;28;20502;-83
2023/04/26 03:18:00;;;;;;;5.32;2.05;;;4.10;99.90;;;;;;5012724;28;20045;-83
2023/04/26 03:20:26;;;;;;;8.63;2.22;;;4.20;99.90;;;;;;5003108;28;20035;-83
2023/04/26 03:22:52;;;;;;;5.72;1.55;;;4.10;99.90;;;;;;5011259;28;20069;-83
2023/04/26 03:25:20;;;;;;;7.95;2.00;;;4.20;99.90;;;;;;5010867;28;20278;-83
2023/04/26 03:27:49;;;;;;;6.60;1.60;;;4.20;99.90;;;;;;5003990;28;20034;-83
2023/04/26 03:30:15;;;;;;;5.00;1.58;;;4.20;99.90;;;;;;5010547;28;20052;-83
2023/04/26 03:32:40;;;;;;;7.47;1.65;;;4.20;99.90;;;;;;5009368;28;20041;-83
2023/04/26 03:35:09;;;;;;;5.07;1.80;;;4.20;99.90;;;;;;5011035;28;20041;-83
2023/04/26 03:37:38;;;;;;;7.07;1.90;;;4.10;99.90;;;;;;4994905;28;20038;-83
2023/04/26 03:40:07;;;;;;;7.65;2.67;;;4.10;99.90;;;;;;5008266;28;20085;-83
2023/04/26 03:42:33;;;;;;;5.57;1.77;;;4.10;99.90;;;;;;5007762;28;20049;-83
2023/04/26 03:44:58;;;;;;;6.32;1.90;;;4.10;99.90;;;;;;5010538;28;20141;-83
2023/04/26 03:47:24;;;;;;;8.98;1.70;;;4.10;99.90;;;;;;5012776;28;20053;-83
2023/04/26 03:49:50;;;;;;;6.78;2.03;;;4.10;99.90;;;;;;5013100;28;20066;-83
2023/04/26 03:52:16;;;;;;;7.20;1.98;;;4.20;99.90;;;;;;5006289;28;20046;-83
2023/04/26 03:54:41;;;;;;;6.95;1.80;;;4.20;99.90;;;;;;5006249;28;20105;-83
2023/04/26 03:57:07;;;;;;;5.28;1.73;;;4.20;99.90;;;;;;5005130;28;20061;-83
2023/04/26 03:59:33;;;;;;;8.52;1.63;;;4.20;99.90;;;;;;5011661;28;20048;-83
2023/04/26 04:01:59;;;;;;;7.60;2.17;;;4.20;99.90;;;;;;5004241;28;20037;-83
2023/04/26 04:04:25;;;;;;;6.60;1.98;;;4.20;99.90;;;;;;5016145;28;20514;-83
2023/04/26 04:06:54;;;;;;;7.03;2.33;;;4.20;99.90;;;;;;5015235;28;20042;-83
2023/04/26 04:09:20;;;;;;;6.45;1.80;;;4.20;99.90;;;;;;5008066;28;20045;-83
2023/04/26 04:11:46;;;;;;;5.95;2.40;;;4.20;99.90;;;;;;5013374;28;20045;-83
2023/04/26 04:14:11;;;;;;;9.43;1.83;;;4.20;99.90;;;;;;5011730;28;20041;-83
2023/04/26 04:16:37;;;;;;;6.10;2.15;;;4.30;99.90;;;;;;5011555;28;20112;-82
2023/04/26 04:19:03;;;;;;;7.60;1.85;;;4.30;99.90;;;;;;5018570;28;20042;-82
2023/04/26 04:21:30;;;;;;;7.88;1.70;;;4.30;99.90;;;;;;5006596;28;20556;-82
2023/04/26 04:23:56;;;;;;;6.72;2.22;;;4.30;99.90;;;;;;5021605;28;20419;-83
2023/04/26 04:26:22;;;;;;;9.98;1.83;;;4.30;99.90;;;;;;5011944;28;20045;-83
2023/04/26 04:28:47;;;;;;;5.63;1.60;;;4.20;99.90;;;;;;5017519;28;20030;-82
2023/04/26 04:31:14;;;;;;;8.55;1.85;;;5.00;99.90;;;;;;5015078;28;20050;-82
2023/04/26 04:33:42;;;;;;;6.43;1.88;;;4.20;99.90;;;;;;5016056;28;20041;-82
2023/04/26 04:36:09;;;;;;;7.38;1.55;;;4.20;99.90;;;;;;5011530;28;20137;-82
2023/04/26 04:38:34;;;;;;;5.63;1.48;;;4.20;99.90;;;;;;5010438;28;20037;-83
2023/04/26 04:41:03;;;;;;;5.57;1.30;;;4.20;99.90;;;;;;5014457;28;20092;-82
2023/04/26 04:43:28;;;;;;;10.95;1.85;;;4.30;99.90;;;;;;5022586;28;20037;-82
2023/04/26 04:45:54;;;;;;;6.57;1.65;;;4.40;99.90;;;;;;5012715;28;20045;-83
2023/04/26 04:48:20;;;;;;;5.40;1.73;;;4.40;99.90;;;;;;5009428;28;20038;-82
2023/04/26 04:50:46;;;;;;;6.72;2.10;;;4.40;99.90;;;;;;5006661;28;20511;-82
2023/04/26 04:53:12;;;;;;;5.32;2.25;;;4.40;99.90;;;;;;5011234;28;20045;-83
2023/04/26 04:55:37;;;;;;;6.07;1.65;;;4.50;99.90;;;;;;4992129;28;20053;-82
2023/04/26 04:58:03;;;;;;;6.15;1.70;;;4.50;99.90;;;;;;5012096;28;20041;-82
2023/04/26 05:00:32;;;;;;;6.07;1.70;;;4.60;99.90;;;;;;5014158;28;20050;-82
2023/04/26 05:02:58;;;;;;;6.53;2.10;;;5.30;99.90;;;;;;4992140;28;20104;-82
2023/04/26 05:05:24;;;;;;;8.02;2.45;;;4.60;99.90;;;;;;5012130;28;20041;-82
2023/04/26 05:07:49;;;;;;;7.85;1.77;;;4.60;99.90;;;;;;5013674;28;20124;-82
2023/04/26 05:10:15;;;;;;;4.47;1.45;;;4.60;99.90;;;;;;5006281;28;20488;-82
2023/04/26 05:12:41;;;;;;;5.75;2.33;;;4.60;99.90;;;;;;5013493;28;20042;-82
2023/04/26 05:15:10;;;;;;;7.65;2.13;;;4.60;99.90;;;;;;5010919;28;20038;-82
2023/04/26 05:17:35;;;;;;;7.20;2.33;;;4.70;99.90;;;;;;5013044;28;20040;-82
2023/04/26 05:20:05;;;;;;;9.13;2.10;;;4.70;99.90;;;;;;5005460;28;20046;-82
2023/04/26 05:22:35;;;;;;;9.07;2.25;;;4.70;99.90;;;;;;5000401;28;20172;-82
2023/04/26 05:25:01;;;;;;;5.03;2.03;;;4.70;99.90;;;;;;5016334;28;20106;-82
2023/04/26 05:27:27;;;;;;;7.22;2.00;;;4.70;99.90;;;;;;5016829;28;20037;-82
2023/04/26 05:29:53;;;;;;;6.25;2.47;;;4.60;99.90;;;;;;5004625;28;20053;-82
2023/04/26 05:32:19;;;;;;;8.75;2.42;;;4.60;99.90;;;;;;5006612;28;20054;-82
2023/04/26 05:34:45;;;;;;;7.30;2.15;;;4.60;99.90;;;;;;4996169;28;20042;-82
2023/04/26 05:37:10;;;;;;;6.72;1.65;;;4.60;99.90;;;;;;4992605;28;20137;-82
2023/04/26 05:39:36;;;;;;;7.10;1.80;;;4.60;99.90;;;;;;5004182;28;20088;-81
2023/04/26 05:42:02;;;;;;;6.53;1.83;;;4.50;99.90;;;;;;5008785;28;20046;-82
2023/04/26 05:44:28;;;;;;;5.78;2.28;;;4.50;99.90;;;;;;5013180;28;20038;-82
2023/04/26 05:46:54;;;;;;;7.40;2.40;;;4.50;99.90;;;;;;5012705;28;20053;-82
2023/04/26 05:49:20;;;;;;;6.88;1.95;;;4.50;99.90;;;;;;5010365;28;20038;-82
2023/04/26 05:51:46;;;;;;;7.78;2.05;;;4.50;99.90;;;;;;4995372;28;20038;-80
2023/04/26 05:54:11;;;;;;;7.72;1.90;;;4.50;99.90;;;;;;5010410;28;20491;-80
2023/04/26 05:56:37;;;;;;;5.68;2.05;;;4.50;99.90;;;;;;5008598;28;20046;-81
2023/04/26 05:59:03;;;;;;;7.45;2.53;;;4.50;99.90;;;;;;5018100;28;20561;-81
2023/04/26 06:01:29;;;;;;;5.68;1.83;;;4.60;99.90;;;;;;5008046;28;20081;-81
2023/04/26 06:03:54;;;;;;;6.75;2.40;;;4.70;99.90;;;;;;5005118;28;20042;-80
2023/04/26 06:06:20;;;;;;;12.18;2.45;;;4.70;99.90;;;;;;5009386;28;20180;-81
2023/04/26 06:08:46;;;;;;;5.10;1.95;;;4.80;99.90;;;;;;5001838;28;20393;-80
2023/04/26 06:11:11;;;;;;;8.43;2.13;;;4.90;99.90;;;;;;4992218;28;20470;-81
2023/04/26 06:13:37;;;;;;;7.80;2.03;;;4.90;99.90;;;;;;5008302;28;20030;-81
2023/04/26 06:16:03;;;;;;;7.47;1.90;;;5.00;99.90;;;;;;4991440;28;20397;-80
2023/04/26 06:18:31;;;;;;;6.70;1.88;;;5.10;99.90;;;;;;5007483;28;20067;-81
2023/04/26 06:20:57;;;;;;;6.70;2.00;;;5.20;99.90;;;;;;5006857;28;20042;-81
2023/04/26 06:23:23;;;;;;;9.10;2.72;;;5.20;99.90;;;;;;5007687;28;20052;-81
2023/04/26 06:25:49;;;;;;;6.85;2.30;;;5.30;99.90;;;;;;5009645;28;20146;-81
2023/04/26 06:28:15;;;;;;;5.65;1.95;;;5.40;99.90;;;;;;5002950;28;20061;-81
2023/04/26 06:30:41;;;;;;;6.55;2.45;;;5.40;99.90;;;;;;5004159;28;20031;-82
2023/04/26 06:33:07;;;;;;;7.70;2.10;;;5.60;99.90;;;;;;5008083;28;20562;-82
2023/04/26 06:35:39;;;;;;;5.20;1.90;;;5.50;99.90;;;;;;5003785;28;20088;-92
2023/04/26 06:38:04;;;;;;;4.90;1.58;;;5.60;99.90;;;;;;5002816;28;20121;-82
2023/04/26 06:40:30;;;;;;;5.90;1.77;;;5.60;99.90;;;;;;5006493;28;20217;-84
2023/04/26 06:42:56;;;;;;;4.93;1.90;;;5.70;99.90;;;;;;5004080;28;20044;-83
2023/04/26 06:45:24;;;;;;;6.05;1.40;;;5.70;99.90;;;;;;5003756;28;20045;-81
2023/04/26 06:47:51;;;;;;;4.82;1.80;;;5.80;99.90;;;;;;4999445;28;20053;-82
2023/04/26 06:50:17;;;;;;;5.53;2.03;;;5.80;99.90;;;;;;5007040;28;20029;-82
2023/04/26 06:52:43;;;;;;;5.40;1.55;;;5.90;99.90;;;;;;5007618;28;20034;-82
2023/04/26 06:55:09;;;;;;;4.03;1.40;;;5.90;99.90;;;;;;5003860;28;20042;-81
2023/04/26 06:57:35;;;;;;;6.90;1.85;;;6.00;99.90;;;;;;5007711;28;20071;-81
2023/04/26 07:00:02;;;;;;;8.60;1.85;;;6.10;99.90;;;;;;5004467;28;20048;-79
2023/04/26 07:02:28;;;;;;;5.00;1.40;;;6.10;99.90;;;;;;4991806;28;20060;-80
2023/04/26 07:04:54;;;;;;;9.77;1.88;;;6.10;99.90;;;;;;5006899;28;20494;-81
2023/04/26 07:07:20;;;;;;;6.15;1.42;;;6.20;99.90;;;;;;5008724;28;20506;-83
2023/04/26 07:09:46;;;;;;;6.72;1.70;;;6.20;99.90;;;;;;5005597;28;20117;-82
2023/04/26 07:12:14;;;;;;;5.93;2.00;;;6.20;99.90;;;;;;5002471;28;20062;-82
2023/04/26 07:14:42;;;;;;;7.20;1.58;;;6.20;99.90;;;;;;4986658;28;20776;-82
2023/04/26 07:17:08;;;;;;;7.10;1.75;;;6.30;99.90;;;;;;4990189;28;20539;-82
2023/04/26 07:19:34;;;;;;;5.40;1.80;;;6.30;99.90;;;;;;5000184;28;20110;-82
2023/04/26 07:22:00;;;;;;;8.25;2.05;;;6.30;99.90;;;;;;5005339;28;20042;-81
2023/04/26 07:24:26;;;;;;;6.22;1.80;;;6.40;99.90;;;;;;4991753;28;20652;-83
2023/04/26 07:26:52;;;;;;;7.68;2.38;;;6.40;99.90;;;;;;4985551;28;20038;-83
2023/04/26 07:29:17;;;;;;;9.63;2.60;;;6.50;99.90;;;;;;5006034;28;20265;-84
2023/04/26 07:31:44;;;;;;;5.93;1.75;;;6.50;99.90;;;;;;5005452;28;20568;-83
2023/04/26 07:34:10;;;;;;;8.63;2.20;;;6.50;99.90;;;;;;5006330;28;20049;-83
2023/04/26 07:36:36;;;;;;;4.95;1.50;;;6.50;99.90;;;;;;5002356;28;20042;-82
2023/04/26 07:39:04;;;;;;;8.68;2.35;;;6.60;99.90;;;;;;5003724;28;20048;-82
2023/04/26 07:41:30;;;;;;;4.60;1.50;;;6.60;99.90;;;;;;5010968;28;20088;-82
2023/04/26 07:43:55;;;;;;;5.13;1.73;;;6.70;99.90;;;;;;4994174;28;20038;-83
2023/04/26 07:46:21;;;;;;;7.60;2.05;;;6.80;99.90;;;;;;5008901;28;20046;-83
2023/04/26 07:48:47;;;;;;;6.18;2.20;;;6.90;99.90;;;;;;5003357;28;20404;-83
2023/04/26 07:51:13;;;;;;;11.98;2.67;;;7.00;99.90;;;;;;5011723;28;20765;-83
2023/04/26 07:53:39;;;;;;;8.07;1.90;;;7.10;99.90;;;;;;5004365;28;20048;-82
2023/04/26 07:56:06;;;;;;;5.20;1.70;;;7.10;99.90;;;;;;5011018;28;20038;-82
2023/04/26 07:58:34;;;;;;;5.45;2.47;;;7.20;99.90;;;;;;5009343;28;20129;-81
2023/04/26 08:01:00;;;;;;;7.93;2.08;;;7.20;99.90;;;;;;5010605;28;20053;-82
2023/04/26 08:03:29;;;;;;;9.65;2.60;;;7.30;99.90;;;;;;5023543;28;20523;-82
2023/04/26 08:05:54;;;;;;;8.15;2.17;;;7.40;99.90;;;;;;5008692;28;20045;-84
2023/04/26 08:08:28;;;;;;;8.35;2.00;;;7.50;99.90;;;;;;5005362;28;20129;-88
2023/04/26 08:10:54;;;;;;;8.50;2.45;;;7.50;99.90;;;;;;5008975;28;20045;-85
2023/04/26 08:13:20;;;;;;;9.43;1.98;;;7.50;99.90;;;;;;5009648;28;20038;-86
2023/04/26 08:15:47;;;;;;;5.75;2.22;;;7.50;99.90;;;;;;5010333;28;20049;-86
2023/04/26 08:18:12;;;;;;;6.88;2.50;;;7.60;99.90;;;;;;5007978;28;20042;-86
2023/04/26 08:20:38;;;;;;;6.93;1.95;;;7.70;99.90;;;;;;5005357;28;20040;-85
2023/04/26 08:23:04;;;;;;;7.70;2.55;;;7.80;99.90;;;;;;5007002;28;20443;-84
2023/04/26 08:25:33;;;;;;;10.93;2.17;;;7.90;99.90;;;;;;5011854;28;20120;-94
2023/04/26 08:27:59;;;;;;;6.85;1.98;;;7.90;99.90;;;;;;5009121;28;20479;-93
2023/04/26 08:30:25;;;;;;;7.43;2.45;;;8.00;99.90;;;;;;5010826;28;20041;-92
2023/04/26 08:32:51;;;;;;;7.55;2.03;;;8.20;99.90;;;;;;5005528;28;20042;-90
2023/04/26 08:35:16;;;;;;;9.68;2.50;;;8.40;99.90;;;;;;5004573;28;20049;-92
2023/04/26 08:37:43;;;;;;;7.28;2.00;;;8.40;99.90;;;;;;4999668;28;20061;-93
2023/04/26 08:40:09;;;;;;;7.53;1.85;;;8.50;99.90;;;;;;5006386;28;20489;-93
2023/04/26 08:42:39;;;;;;;4.05;1.73;;;8.40;99.90;;;;;;5007242;28;20042;-93
2023/04/26 08:45:07;;;;;;;5.47;1.70;;;8.30;99.90;;;;;;5014328;28;20050;-93
2023/04/26 08:47:55;;;;;;;5.40;1.67;;;8.30;99.90;;;;;;5011567;28;20034;-96
2023/04/26 08:50:22;;;;;;;8.30;2.25;;;8.20;99.90;;;;;;5006937;28;20040;-92
2023/04/26 08:52:50;;;;;;;6.22;2.33;;;8.10;99.90;;;;;;5011154;28;20093;-92
2023/04/26 08:55:18;;;;;;;9.45;2.50;;;8.10;99.90;;;;;;5009605;28;20092;-87
2023/04/26 08:57:48;;;;;;;7.88;1.67;;;8.10;99.90;;;;;;5010155;28;20190;-84
2023/04/26 09:00:15;;;;;;;5.03;1.70;;;8.30;99.90;;;;;;5005702;28;20033;-86
2023/04/26 09:02:52;;;;;;;11.52;2.05;;;8.20;99.90;;;;;;5009804;28;20045;-84
2023/04/26 09:05:25;;;;;;;6.55;1.80;;;8.20;99.90;;;;;;5000778;28;20030;-85
2023/04/26 09:07:55;;;;;;;6.70;1.80;;;8.20;99.90;;;;;;5008725;28;20140;-84
2023/04/26 09:10:21;;;;;;;6.78;1.85;;;8.30;99.90;;;;;;5010992;28;20055;-85
2023/04/26 09:12:53;;;;;;;7.85;2.05;;;8.30;99.90;;;;;;5010306;28;20666;-84
2023/04/26 09:15:24;;;;;;;9.02;1.90;;;8.30;99.90;;;;;;5000968;28;20065;-88
2023/04/26 09:17:50;;;;;;;11.07;1.77;;;8.40;99.90;;;;;;5006465;28;20033;-84
2023/04/26 09:20:25;;;;;;;6.05;1.90;;;8.40;99.90;;;;;;5004140;28;20030;-88
2023/04/26 09:22:53;;;;;;;6.60;1.90;;;8.40;99.90;;;;;;5005855;28;20038;-86
2023/04/26 09:25:29;;;;;;;8.15;2.50;;;8.20;99.90;;;;;;5008008;28;20088;-87
2023/04/26 09:27:55;;;;;;;8.25;2.28;;;8.10;99.90;;;;;;5006081;28;20231;-87
2023/04/26 09:30:21;;;;;;;10.35;2.58;;;8.00;99.90;;;;;;5007071;28;20415;-87
2023/04/26 09:32:53;;;;;;;7.07;2.13;;;7.90;99.90;;;;;;5011232;28;20103;-87
2023/04/26 09:35:31;;;;;;;7.95;2.22;;;7.80;99.90;;;;;;5008083;28;20053;-87
2023/04/26 09:38:05;;;;;;;5.50;1.70;;;7.80;99.90;;;;;;5006123;28;20045;-87
2023/04/26 09:40:40;;;;;;;11.07;2.20;;;7.70;99.90;;;;;;5000369;28;20524;-86
2023/04/26 09:43:05;;;;;;;6.85;2.00;;;7.70;99.90;;;;;;5004047;28;20499;-86
2023/04/26 09:45:41;;;;;;;5.07;1.90;;;7.70;99.90;;;;;;5009757;28;20049;-86
2023/04/26 09:48:13;;;;;;;7.05;2.08;;;7.60;99.90;;;;;;5010249;28;20038;-86
2023/04/26 09:50:39;;;;;;;9.63;2.15;;;7.60;99.90;;;;;;5008197;28;20515;-84
2023/04/26 09:53:04;;;;;;;7.60;2.20;;;7.60;99.90;;;;;;5007404;28;20038;-87
2023/04/26 09:55:30;;;;;;;8.35;2.40;;;7.60;99.90;;;;;;5002067;28;20068;-88
2023/04/26 09:57:59;;;;;;;5.35;1.90;;;7.60;99.90;;;;;;5002709;28;20161;-87
2023/04/26 10:00:25;;;;;;;7.25;2.00;;;7.70;99.90;;;;;;5005422;28;20049;-88
2023/04/26 10:02:54;;;;;;;8.80;2.25;;;7.70;99.90;;;;;;5008145;28;20164;-85
2023/04/26 10:05:21;;;;;;;9.77;2.25;;;7.90;99.90;;;;;;5008491;28;20034;-89
2023/04/26 10:07:48;;;;;;;7.90;2.17;;;8.00;99.90;;;;;;4998191;28;20038;-89
2023/04/26 10:10:14;;;;;;;6.25;2.53;;;8.10;99.90;;;;;;5004512;28;20036;-89
2023/04/26 10:12:41;;;;;;;7.82;2.13;;;8.10;99.90;;;;;;5000420;28;20121;-88
2023/04/26 10:15:09;;;;;;;5.38;2.15;;;8.20;99.90;;;;;;5008899;28;20445;-89
2023/04/26 10:17:34;;;;;;;6.38;1.65;;;8.30;99.90;;;;;;4997468;28;20077;-89
2023/04/26 10:20:04;;;;;;;7.97;2.00;;;8.40;99.90;;;;;;5007157;28;20084;-89
2023/04/26 10:22:34;;;;;;;7.63;2.20;;;8.50;99.90;;;;;;5006985;28;20488;-89
2023/04/26 10:25:00;;;;;;;6.50;2.28;;;8.50;99.90;;;;;;5002090;28;20064;-89
2023/04/26 10:27:46;;;;;;;10.75;2.13;;;8.60;99.90;;;;;;5004933;28;20484;-89
2023/04/26 10:30:21;;;;;;;7.63;2.15;;;8.90;99.90;;;;;;5008860;28;20057;-89
2023/04/26 10:32:56;;;;;;;7.93;2.13;;;8.70;99.90;;;;;;5003766;28;20329;-89
2023/04/26 10:35:31;;;;;;;6.78;2.38;;;8.80;99.90;;;;;;5007102;28;20133;-89
2023/04/26 10:38:00;;;;;;;9.23;2.17;;;8.80;99.90;;;;;;5003449;28;20034;-89
2023/04/26 10:40:38;;;;;;;8.00;1.88;;;8.90;99.90;;;;;;5006294;28;20480;-88
2023/04/26 10:43:13;;;;;;;5.32;1.98;;;9.10;99.90;;;;;;5005906;28;20116;-89
2023/04/26 10:45:41;;;;;;;8.05;2.20;;;9.30;99.90;;;;;;4997647;28;20050;-89
2023/04/26 10:48:19;;;;;;;6.43;2.00;;;9.30;99.90;;;;;;4996546;28;20046;-89
2023/04/26 10:51:00;;;;;;;9.13;1.95;;;9.20;99.90;;;;;;5003232;28;20081;-89
2023/04/26 10:53:42;;;;;;;8.45;1.90;;;9.00;99.90;;;;;;5004280;28;20042;-89
2023/04/26 10:56:08;;;;;;;6.55;1.65;;;8.90;99.90;;;;;;4991540;28;20489;-89
2023/04/26 10:58:34;;;;;;;7.00;1.65;;;8.80;99.90;;;;;;5005743;28;20103;-88
2023/04/26 11:01:12;;;;;;;10.15;1.90;;;8.70;99.90;;;;;;5004042;28;20054;-88
2023/04/26 11:03:39;;;;;;;5.00;2.10;;;8.50;99.90;;;;;;4994071;28;20055;-87
2023/04/26 11:06:06;;;;;;;10.70;2.50;;;8.50;99.90;;;;;;4999833;28;20031;-88
2023/04/26 11:08:33;;;;;;;4.53;2.03;;;8.70;99.90;;;;;;5003555;28;20046;-88
2023/04/26 11:11:11;;;;;;;6.38;2.33;;;8.50;99.90;;;;;;5004689;28;20042;-88
2023/04/26 11:13:40;;;;;;;4.70;1.77;;;8.50;99.90;;;;;;5010454;28;20036;-88
2023/04/26 11:16:11;;;;;;;5.45;1.77;;;8.60;99.90;;;;;;5009185;28;20045;-88
2023/04/26 11:18:42;;;;;;;11.90;2.88;;;8.60;99.90;;;;;;5009068;28;20038;-88
2023/04/26 11:21:09;;;;;;;5.78;1.80;;;8.70;99.90;;;;;;5003209;28;20030;-88
2023/04/26 11:23:35;;;;;;;5.25;1.70;;;8.90;99.90;;;;;;4996782;28;20033;-88
2023/04/26 11:26:03;;;;;;;8.48;2.10;;;8.90;99.90;;;;;;5008588;28;20662;-87
2023/04/26 11:28:30;;;;;;;6.95;2.25;;;8.90;99.90;;;;;;5014354;28;20492;-88
2023/04/26 11:30:56;;;;;;;12.88;2.28;;;9.00;99.90;;;;;;5005711;28;20091;-88
2023/04/26 11:33:22;;;;;;;6.13;1.70;;;8.90;99.90;;;;;;5006268;28;20049;-88
2023/04/26 11:35:49;;;;;;;7.22;1.42;;;8.80;99.90;;;;;;5013919;28;20049;-87
2023/04/26 11:38:15;;;;;;;7.38;1.63;;;8.60;99.90;;;;;;5003910;28;20042;-87
2023/04/26 11:40:41;;;;;;;5.47;1.50;;;8.60;99.90;;;;;;5006503;28;20042;-88
2023/04/26 11:43:08;;;;;;;4.88;1.17;;;8.50;99.90;;;;;;5014333;28;20380;-87
2023/04/26 11:45:36;;;;;;;7.80;1.85;;;8.40;99.90;;;;;;5013618;28;20500;-87
2023/04/26 11:48:03;;;;;;;7.53;1.90;;;8.40;99.90;;;;;;5008079;28;20053;-87
2023/04/26 11:50:31;;;;;;;6.40;1.60;;;8.40;99.90;;;;;;5002175;28;20065;-88
2023/04/26 11:52:59;;;;;;;6.38;1.30;;;8.40;99.90;;;;;;5009778;28;20176;-88
2023/04/26 11:55:32;;;;;;;4.80;1.50;;;8.50;99.90;;;;;;5002444;28;20459;-88
2023/04/26 11:58:07;;;;;;;4.07;1.42;;;8.50;99.90;;;;;;4999847;28;20082;-88
2023/04/26 12:00:33;;;;;;;4.97;1.45;;;8.60;99.90;;;;;;5002516;28;20042;-87
2023/04/26 12:03:05;;;;;;;3.67;1.52;;;9.00;99.90;;;;;;5010937;28;20046;-87
2023/04/26 12:05:31;;;;;;;6.45;1.83;;;8.70;99.90;;;;;;5009621;28;20038;-87
2023/04/26 12:07:59;;;;;;;6.80;1.90;;;8.80;99.90;;;;;;5009869;28;20041;-88
2023/04/26 12:10:31;;;;;;;6.35;2.17;;;8.90;99.90;;;;;;5009308;28;20109;-87
2023/04/26 12:12:58;;;;;;;8.02;1.90;;;9.00;99.90;;;;;;5009379;28;20041;-87
2023/04/26 12:15:32;;;;;;;7.40;2.28;;;9.10;99.90;;;;;;5006316;28;20045;-87
2023/04/26 12:17:59;;;;;;;8.18;1.92;;;9.10;99.90;;;;;;5012362;28;20120;-88
2023/04/26 12:20:32;;;;;;;5.70;1.88;;;9.10;99.90;;;;;;5013281;28;20038;-88
2023/04/26 12:23:04;;;;;;;9.13;2.63;;;9.10;99.90;;;;;;5007352;28;20077;-87
2023/04/26 12:25:31;;;;;;;7.63;1.70;;;9.10;99.90;;;;;;5007642;28;20042;-87
2023/04/26 12:27:56;;;;;;;7.25;1.90;;;9.20;99.90;;;;;;5013797;28;20045;-87
2023/04/26 12:30:22;;;;;;;5.88;1.80;;;9.20;99.90;;;;;;5015743;28;20400;-87
2023/04/26 12:32:48;;;;;;;4.50;1.75;;;9.10;99.90;;;;;;5007904;28;20261;-87
2023/04/26 12:35:14;;;;;;;4.97;1.45;;;9.10;99.90;;;;;;5004041;28;20476;-87
2023/04/26 12:37:40;;;;;;;6.18;1.58;;;9.20;99.90;;;;;;5008946;28;20037;-87
2023/04/26 12:40:06;;;;;;;6.78;1.52;;;9.20;99.90;;;;;;5007096;28;20480;-87
2023/04/26 12:42:32;;;;;;;6.45;1.50;;;9.30;99.90;;;;;;5001548;28;20408;-88
2023/04/26 12:44:57;;;;;;;5.05;1.20;;;9.30;99.90;;;;;;5012333;28;20042;-87
2023/04/26 12:47:23;;;;;;;6.68;1.48;;;9.40;99.90;;;;;;5012489;28;20030;-87
2023/04/26 12:49:49;;;;;;;4.93;1.60;;;9.40;99.90;;;;;;5001373;28;20460;-87
2023/04/26 12:52:14;;;;;;;9.15;1.60;;;9.40;99.90;;;;;;5007941;28;20108;-87
2023/04/26 12:54:40;;;;;;;4.50;1.98;;;9.50;99.90;;;;;;5003672;28;20472;-87
2023/04/26 12:57:05;;;;;;;5.43;1.23;;;9.40;99.90;;;;;;5000924;28;20116;-87